Main page
METAR-TAF:

METAR-TAF

Airports :

Najran Domestic Airport

Najran, Saudi Arabia

latitude: 17-37N, longitude: 044-25E, elevation: 1212 m

Current weather observation

The report was made 1 hour and 4 minutes ago, at 20:00 UTC
Calm wind
Temperature 18°C
Humidity 37%
Pressure 1021 hPa
Visibility 10 km or more
no clouds below 1500 m and no cumulonimbus

METAR: OENG 012000Z 00000KT CAVOK 18/03 Q1021 NOSIG

Time: 00:04 (21:04 UTC)

Forecast

The report was made 10 hours and 4 minutes ago, at 11:00 UTC
Forecast valid from 01 at 12 UTC to 02 at 18 UTC
Wind 10 kt from the East
Visibility 10 km or more
no clouds below 1500 m and no cumulonimbus
Becoming
from 01 at 18 UTC to 01 at 20 UTC
Wind 5 kt from the East
Becoming
from 02 at 06 UTC to 02 at 08 UTC
Wind 10 kt from the Southeast

TAF: OENG 011100Z 0112/0218 10010KT CAVOK BECMG 0118/0120 09005KT BECMG 0206/0208 13010KT

Weather observations and forecasts of more than 4000 airports (METAR and TAF reports).

The available stations are represented by yellow and red dots on the map.

Hover mouse over dot to see the name of the station.

Then click to see weather observations and forecasts.

To change the map : click on the green buttons with a black cross to zoom in, on the green button with a dash to zoom out, or on the green arrows for adjacent maps.


METAR-TAF: